Time;durP1;ratioP1;P1;durP2;ratioP2;P2;SDS_P1;SDS_P2;PMS_P1;PMS_P2;Temp;Humidity;BMP_temperature;BMP_pressure;BME280_temperature;BME280_humidity;BME280_pressure;Samples;Min_cycle;Max_cycle;Signal;HPM_P1;HPM_P2
2021/01/24 00:00:30;;;;;;;34.00;17.90;;;;;;;;;;1820652;79;21121;-74
2021/01/24 00:02:58;;;;;;;38.48;18.02;;;;;;;;;;1818671;79;21276;-74
2021/01/24 00:05:24;;;;;;;31.85;18.02;;;;;;;;;;1819173;79;21149;-73
2021/01/24 00:07:51;;;;;;;34.80;17.52;;;;;;;;;;1818913;79;21568;-74
2021/01/24 00:10:17;;;;;;;34.60;17.50;;;;;;;;;;1818868;79;21121;-73
2021/01/24 00:12:43;;;;;;;43.20;20.00;;;;;;;;;;1818912;79;21581;-74
2021/01/24 00:15:10;;;;;;;35.28;18.50;;;;;;;;;;1819176;79;21125;-74
2021/01/24 00:17:36;;;;;;;38.78;18.77;;;;;;;;;;1819024;79;21169;-74
2021/01/24 00:20:03;;;;;;;33.35;17.55;;;;;;;;;;1818877;79;21585;-74
2021/01/24 00:22:29;;;;;;;37.65;18.62;;;;;;;;;;1818787;79;21521;-74
2021/01/24 00:24:56;;;;;;;40.67;19.23;;;;;;;;;;1818945;79;21156;-73
2021/01/24 00:27:22;;;;;;;37.13;19.48;;;;;;;;;;1818855;79;21565;-74
2021/01/24 00:29:48;;;;;;;37.15;18.15;;;;;;;;;;1818759;79;21117;-73
2021/01/24 00:32:14;;;;;;;36.25;17.70;;;;;;;;;;1818949;79;21156;-74
2021/01/24 00:34:41;;;;;;;36.68;18.42;;;;;;;;;;1819039;79;21545;-74
2021/01/24 00:37:07;;;;;;;37.03;18.37;;;;;;;;;;1819148;79;21189;-74
2021/01/24 00:39:33;;;;;;;50.12;20.65;;;;;;;;;;1819047;79;21567;-74
2021/01/24 00:42:00;;;;;;;37.53;19.57;;;;;;;;;;1819291;79;21129;-73
2021/01/24 00:44:26;;;;;;;43.02;17.80;;;;;;;;;;1819039;79;21568;-73
2021/01/24 00:46:52;;;;;;;33.25;16.48;;;;;;;;;;1819041;79;21149;-74
2021/01/24 00:49:18;;;;;;;41.83;18.42;;;;;;;;;;1819097;79;21094;-74
2021/01/24 00:51:45;;;;;;;38.40;18.40;;;;;;;;;;1818886;79;21148;-74
2021/01/24 00:54:11;;;;;;;34.80;18.73;;;;;;;;;;1819005;79;21118;-74
2021/01/24 00:56:37;;;;;;;29.30;15.68;;;;;;;;;;1819072;79;21129;-74
2021/01/24 00:59:04;;;;;;;32.67;15.70;;;;;;;;;;1819275;79;21098;-74
2021/01/24 01:01:30;;;;;;;30.90;15.10;;;;;;;;;;1821593;79;21157;-73
2021/01/24 01:03:56;;;;;;;35.40;16.40;;;;;;;;;;1822464;79;21707;-73
2021/01/24 01:06:22;;;;;;;34.95;17.52;;;;;;;;;;1822378;79;21137;-73
2021/01/24 01:08:48;;;;;;;34.27;16.35;;;;;;;;;;1822643;79;21133;-74
2021/01/24 01:11:14;;;;;;;30.40;15.98;;;;;;;;;;1822469;79;21279;-74
2021/01/24 01:13:40;;;;;;;31.35;16.27;;;;;;;;;;1822754;79;21145;-73
2021/01/24 01:16:07;;;;;;;33.55;17.73;;;;;;;;;;1822453;79;21585;-73
2021/01/24 01:18:33;;;;;;;31.42;16.32;;;;;;;;;;1822352;79;21121;-74
2021/01/24 01:20:59;;;;;;;36.65;18.85;;;;;;;;;;1822488;79;21279;-74
2021/01/24 01:23:25;;;;;;;32.20;18.12;;;;;;;;;;1822754;79;21136;-74
2021/01/24 01:25:52;;;;;;;35.10;18.17;;;;;;;;;;1822911;79;21120;-74
2021/01/24 01:28:18;;;;;;;36.28;16.57;;;;;;;;;;1822432;79;21538;-73
2021/01/24 01:30:44;;;;;;;39.78;19.48;;;;;;;;;;1822863;79;21125;-73
2021/01/24 01:33:10;;;;;;;30.32;15.23;;;;;;;;;;1822433;79;21624;-73
2021/01/24 01:35:37;;;;;;;36.70;18.42;;;;;;;;;;1822297;79;21251;-74
2021/01/24 01:38:03;;;;;;;33.18;16.42;;;;;;;;;;1822563;79;21561;-74
2021/01/24 01:40:29;;;;;;;31.02;13.98;;;;;;;;;;1822887;79;21145;-74
2021/01/24 01:42:56;;;;;;;29.87;15.05;;;;;;;;;;1822418;79;21149;-73
2021/01/24 01:45:23;;;;;;;36.03;16.85;;;;;;;;;;1822834;79;21156;-73
2021/01/24 01:47:49;;;;;;;24.50;13.55;;;;;;;;;;1822531;79;21110;-73
2021/01/24 01:50:16;;;;;;;31.97;15.15;;;;;;;;;;1822386;79;21160;-73
2021/01/24 01:52:42;;;;;;;31.57;15.85;;;;;;;;;;1822352;79;21113;-74
2021/01/24 01:55:09;;;;;;;27.70;14.50;;;;;;;;;;1822396;79;21571;-74
2021/01/24 01:57:35;;;;;;;34.43;16.05;;;;;;;;;;1822477;79;21596;-74
2021/01/24 02:00:01;;;;;;;28.15;14.15;;;;;;;;;;1822352;79;21133;-74
2021/01/24 02:02:46;;;;;;;29.30;16.15;;;;;;;;;;1822380;79;21260;-73
2021/01/24 02:05:20;;;;;;;28.42;15.85;;;;;;;;;;1822511;79;21192;-74
2021/01/24 02:07:54;;;;;;;32.05;16.32;;;;;;;;;;1822338;79;21137;-74
2021/01/24 02:10:25;;;;;;;28.85;14.47;;;;;;;;;;1822634;79;21682;-74
2021/01/24 02:12:53;;;;;;;32.45;16.35;;;;;;;;;;1757103;79;21545;-74
2021/01/24 02:15:19;;;;;;;27.65;15.60;;;;;;;;;;1822144;79;21263;-73
2021/01/24 02:17:52;;;;;;;28.23;15.00;;;;;;;;;;1822568;79;21162;-73
2021/01/24 02:20:20;;;;;;;31.07;15.28;;;;;;;;;;1822854;79;21129;-73
2021/01/24 02:22:47;;;;;;;27.35;15.32;;;;;;;;;;1822379;79;21311;-73
2021/01/24 02:25:21;;;;;;;28.05;15.23;;;;;;;;;;1822302;79;21572;-74
2021/01/24 02:27:49;;;;;;;29.12;15.75;;;;;;;;;;1822566;79;21150;-74
2021/01/24 02:30:16;;;;;;;27.98;15.55;;;;;;;;;;1822325;79;21133;-74
2021/01/24 02:32:43;;;;;;;29.15;14.47;;;;;;;;;;1822233;79;21145;-74
2021/01/24 02:35:09;;;;;;;26.10;15.90;;;;;;;;;;1822362;79;21589;-73
2021/01/24 02:37:35;;;;;;;28.75;15.65;;;;;;;;;;1822452;79;21169;-74
2021/01/24 02:40:02;;;;;;;24.52;15.13;;;;;;;;;;1822501;79;21125;-74
2021/01/24 02:42:28;;;;;;;32.17;15.25;;;;;;;;;;1822315;79;21632;-74
2021/01/24 02:44:54;;;;;;;25.32;13.38;;;;;;;;;;1822586;79;21130;-74
2021/01/24 02:47:20;;;;;;;27.40;13.93;;;;;;;;;;1822737;79;21521;-74
2021/01/24 02:49:47;;;;;;;33.08;15.03;;;;;;;;;;1822590;79;21128;-74
2021/01/24 02:52:14;;;;;;;32.80;16.95;;;;;;;;;;1822351;79;21094;-73
2021/01/24 02:54:40;;;;;;;30.88;16.90;;;;;;;;;;1822593;79;21129;-73
2021/01/24 02:57:06;;;;;;;31.05;15.78;;;;;;;;;;1822518;79;21276;-73
2021/01/24 02:59:33;;;;;;;34.53;17.80;;;;;;;;;;1822385;79;21121;-74
2021/01/24 03:01:59;;;;;;;32.25;15.88;;;;;;;;;;1822082;79;21188;-74
2021/01/24 03:04:25;;;;;;;29.18;15.43;;;;;;;;;;1822068;79;21199;-73
2021/01/24 03:06:51;;;;;;;27.32;15.00;;;;;;;;;;1822190;79;21132;-74
2021/01/24 03:09:17;;;;;;;29.10;16.05;;;;;;;;;;1822224;79;21271;-74
2021/01/24 03:11:44;;;;;;;38.10;17.40;;;;;;;;;;1822189;79;21129;-75
2021/01/24 03:14:11;;;;;;;32.25;17.55;;;;;;;;;;1821966;79;21132;-73
2021/01/24 03:16:37;;;;;;;30.05;15.43;;;;;;;;;;1822179;79;21153;-74
2021/01/24 03:19:03;;;;;;;34.40;16.87;;;;;;;;;;1822051;79;21149;-74
2021/01/24 03:21:30;;;;;;;29.60;14.90;;;;;;;;;;1822021;79;21145;-73
2021/01/24 03:23:56;;;;;;;31.52;16.62;;;;;;;;;;1821999;79;21158;-73
2021/01/24 03:26:22;;;;;;;32.42;17.05;;;;;;;;;;1821950;79;21129;-75
2021/01/24 03:28:48;;;;;;;31.65;17.65;;;;;;;;;;1822042;79;21819;-73
2021/01/24 03:31:14;;;;;;;36.55;18.02;;;;;;;;;;1822348;79;21098;-74
2021/01/24 03:33:41;;;;;;;28.83;17.40;;;;;;;;;;1792448;79;21094;-74
2021/01/24 03:36:07;;;;;;;26.80;15.13;;;;;;;;;;1821899;79;21184;-74
2021/01/24 03:38:33;;;;;;;30.37;16.73;;;;;;;;;;1822058;79;21156;-73
2021/01/24 03:40:59;;;;;;;32.17;17.40;;;;;;;;;;1821958;79;21101;-74
2021/01/24 03:43:26;;;;;;;31.55;17.50;;;;;;;;;;1822117;79;21664;-74
2021/01/24 03:45:53;;;;;;;35.48;17.92;;;;;;;;;;1821845;79;21239;-73
2021/01/24 03:48:20;;;;;;;41.70;19.73;;;;;;;;;;1822147;79;21260;-75
2021/01/24 03:50:46;;;;;;;41.00;20.20;;;;;;;;;;1822270;79;21303;-74
2021/01/24 03:53:12;;;;;;;34.30;19.15;;;;;;;;;;1822406;79;21141;-74
2021/01/24 03:55:38;;;;;;;36.30;20.20;;;;;;;;;;1822533;79;21137;-73
2021/01/24 03:58:04;;;;;;;39.67;20.30;;;;;;;;;;1822024;79;21110;-73
2021/01/24 04:00:30;;;;;;;39.83;21.40;;;;;;;;;;1821263;78;21173;-74
2021/01/24 04:02:56;;;;;;;37.55;20.80;;;;;;;;;;1821891;79;21142;-73
2021/01/24 04:05:23;;;;;;;42.53;23.10;;;;;;;;;;1821857;79;21126;-73
2021/01/24 04:07:49;;;;;;;40.03;21.55;;;;;;;;;;1822061;79;21774;-73
2021/01/24 04:10:15;;;;;;;40.33;21.70;;;;;;;;;;1822195;79;21156;-73
2021/01/24 04:12:41;;;;;;;41.73;22.87;;;;;;;;;;1822128;79;21130;-74
2021/01/24 04:15:08;;;;;;;41.50;20.97;;;;;;;;;;1821303;79;21133;-74
2021/01/24 04:17:34;;;;;;;46.48;24.18;;;;;;;;;;1821958;79;21121;-73
2021/01/24 04:20:00;;;;;;;42.45;23.12;;;;;;;;;;1822137;79;21588;-73
2021/01/24 04:22:26;;;;;;;39.65;20.70;;;;;;;;;;1822078;79;21136;-74
2021/01/24 04:24:53;;;;;;;37.58;19.57;;;;;;;;;;1822309;79;21101;-73
2021/01/24 04:27:19;;;;;;;38.13;19.62;;;;;;;;;;1822031;79;21628;-74
2021/01/24 04:29:45;;;;;;;36.40;19.45;;;;;;;;;;1822138;79;21133;-74
2021/01/24 04:32:11;;;;;;;34.50;19.48;;;;;;;;;;1822513;79;21267;-74
2021/01/24 04:34:37;;;;;;;38.48;19.27;;;;;;;;;;1822010;79;21545;-73
2021/01/24 04:37:04;;;;;;;36.88;19.40;;;;;;;;;;1822265;79;21291;-73
2021/01/24 04:39:30;;;;;;;34.55;18.37;;;;;;;;;;1822029;79;21172;-74
2021/01/24 04:41:56;;;;;;;35.65;16.87;;;;;;;;;;1822048;79;21577;-73
2021/01/24 04:44:23;;;;;;;35.03;17.62;;;;;;;;;;1822240;79;21671;-74
2021/01/24 04:46:49;;;;;;;34.35;18.05;;;;;;;;;;1821951;79;21125;-74
2021/01/24 04:49:17;;;;;;;30.35;16.02;;;;;;;;;;1822263;79;21282;-73
2021/01/24 04:51:43;;;;;;;29.30;15.93;;;;;;;;;;1822122;79;21132;-73
2021/01/24 04:54:09;;;;;;;25.97;13.93;;;;;;;;;;1822311;79;21144;-74
2021/01/24 04:56:37;;;;;;;24.45;14.30;;;;;;;;;;1822039;79;21141;-74
2021/01/24 04:59:03;;;;;;;27.17;14.33;;;;;;;;;;1821942;79;21121;-75
2021/01/24 05:01:29;;;;;;;26.27;14.35;;;;;;;;;;1821961;79;21109;-74
2021/01/24 05:03:56;;;;;;;37.15;15.85;;;;;;;;;;1822311;79;21723;-74
2021/01/24 05:06:22;;;;;;;25.45;13.72;;;;;;;;;;1822295;79;21173;-74
2021/01/24 05:08:48;;;;;;;27.22;14.80;;;;;;;;;;1822328;79;21106;-74
2021/01/24 05:11:14;;;;;;;31.93;15.05;;;;;;;;;;1822494;79;21125;-73
2021/01/24 05:13:40;;;;;;;28.38;14.45;;;;;;;;;;1822345;79;21263;-74
2021/01/24 05:16:06;;;;;;;26.23;14.78;;;;;;;;;;1822198;79;21568;-74
2021/01/24 05:18:33;;;;;;;26.85;14.58;;;;;;;;;;1822297;79;21161;-73
2021/01/24 05:20:59;;;;;;;26.25;15.25;;;;;;;;;;1822427;79;21133;-74
2021/01/24 05:23:25;;;;;;;29.57;14.58;;;;;;;;;;1822354;79;21268;-74
2021/01/24 05:25:55;;;;;;;29.77;16.35;;;;;;;;;;1822466;79;21168;-74
2021/01/24 05:28:26;;;;;;;36.40;16.48;;;;;;;;;;1822469;79;21097;-73
2021/01/24 05:31:00;;;;;;;28.30;15.83;;;;;;;;;;1821436;79;21113;-73
2021/01/24 05:33:26;;;;;;;28.42;16.12;;;;;;;;;;1822121;78;21125;-73
2021/01/24 05:35:52;;;;;;;28.90;16.25;;;;;;;;;;1822382;79;21280;-74
2021/01/24 05:38:23;;;;;;;29.05;16.45;;;;;;;;;;1822543;79;21557;-73
2021/01/24 05:40:50;;;;;;;33.48;15.95;;;;;;;;;;1822387;79;21268;-73
2021/01/24 05:43:16;;;;;;;26.25;14.70;;;;;;;;;;1822735;79;21126;-74
2021/01/24 05:45:43;;;;;;;30.55;15.72;;;;;;;;;;1822972;79;21186;-74
2021/01/24 05:48:09;;;;;;;30.48;16.67;;;;;;;;;;1822733;79;21133;-74
2021/01/24 05:50:35;;;;;;;32.75;16.35;;;;;;;;;;1822453;79;21273;-73
2021/01/24 05:53:04;;;;;;;28.60;16.05;;;;;;;;;;1822704;79;21129;-74
2021/01/24 05:55:31;;;;;;;24.95;13.58;;;;;;;;;;1822942;79;21134;-73
2021/01/24 05:57:57;;;;;;;31.48;15.93;;;;;;;;;;1822383;79;21132;-75
2021/01/24 06:00:24;;;;;;;30.75;15.63;;;;;;;;;;1822644;79;21165;-74
2021/01/24 06:02:50;;;;;;;30.12;15.72;;;;;;;;;;1819624;79;21207;-74
2021/01/24 06:05:16;;;;;;;31.82;16.57;;;;;;;;;;1818987;79;21161;-74
2021/01/24 06:07:42;;;;;;;28.17;15.72;;;;;;;;;;1819001;79;21542;-74
2021/01/24 06:10:08;;;;;;;30.02;16.37;;;;;;;;;;1819236;79;21145;-73
2021/01/24 06:12:35;;;;;;;33.33;16.45;;;;;;;;;;1819028;79;21149;-74
2021/01/24 06:15:04;;;;;;;27.95;15.53;;;;;;;;;;1819231;79;21144;-73
2021/01/24 06:17:35;;;;;;;31.02;16.93;;;;;;;;;;1818785;79;21106;-73
2021/01/24 06:20:03;;;;;;;26.17;15.88;;;;;;;;;;1819259;79;21099;-74
2021/01/24 06:22:33;;;;;;;28.95;15.70;;;;;;;;;;1818862;79;21094;-75
2021/01/24 06:25:00;;;;;;;33.83;15.85;;;;;;;;;;1818957;79;21149;-74
2021/01/24 06:27:27;;;;;;;31.77;16.62;;;;;;;;;;1818930;79;21145;-74
2021/01/24 06:29:53;;;;;;;37.28;18.40;;;;;;;;;;1818851;79;21140;-74
2021/01/24 06:32:23;;;;;;;32.95;17.20;;;;;;;;;;1787259;79;21580;-74
2021/01/24 06:34:49;;;;;;;30.85;17.90;;;;;;;;;;1819068;79;21145;-73
2021/01/24 06:37:21;;;;;;;32.60;17.05;;;;;;;;;;1819011;79;21747;-73
2021/01/24 06:39:53;;;;;;;33.60;18.42;;;;;;;;;;1818931;79;21105;-73
2021/01/24 06:42:35;;;;;;;39.08;19.10;;;;;;;;;;1819006;79;21117;-74
2021/01/24 06:45:01;;;;;;;43.40;21.20;;;;;;;;;;1818962;79;21130;-73
2021/01/24 06:47:38;;;;;;;34.45;19.62;;;;;;;;;;1818896;79;21141;-73
2021/01/24 06:50:05;;;;;;;32.75;17.45;;;;;;;;;;1818859;79;21126;-73
2021/01/24 06:52:31;;;;;;;42.00;23.45;;;;;;;;;;1818972;79;21490;-74
2021/01/24 06:54:58;;;;;;;35.35;19.10;;;;;;;;;;1819256;79;21113;-74
2021/01/24 06:57:26;;;;;;;37.15;18.77;;;;;;;;;;1787240;79;21149;-74
2021/01/24 06:59:54;;;;;;;34.53;18.23;;;;;;;;;;1818220;79;21172;-74
2021/01/24 07:02:22;;;;;;;38.38;18.73;;;;;;;;;;1816831;79;21144;-72
2021/01/24 07:05:06;;;;;;;32.00;17.50;;;;;;;;;;1824707;79;21153;-74
2021/01/24 07:07:33;;;;;;;34.70;19.30;;;;;;;;;;1825061;79;21128;-72
2021/01/24 07:09:59;;;;;;;35.83;19.30;;;;;;;;;;1824796;79;21612;-74
2021/01/24 07:12:39;;;;;;;25.00;15.28;;;;;;;;;;1824764;79;21200;-74
2021/01/24 07:15:07;;;;;;;35.92;18.45;;;;;;;;;;1824908;79;21152;-73
2021/01/24 07:17:33;;;;;;;39.53;20.72;;;;;;;;;;1823282;79;21125;-73
2021/01/24 07:19:59;;;;;;;39.55;20.45;;;;;;;;;;1824831;79;21173;-74
2021/01/24 07:22:26;;;;;;;39.70;20.52;;;;;;;;;;1794993;79;21585;-73
2021/01/24 07:24:53;;;;;;;43.00;19.95;;;;;;;;;;1824618;79;21125;-74
2021/01/24 07:27:23;;;;;;;42.33;23.05;;;;;;;;;;1824668;79;21105;-74
2021/01/24 07:29:49;;;;;;;44.35;24.98;;;;;;;;;;1824567;79;21097;-74
2021/01/24 07:32:16;;;;;;;44.05;25.40;;;;;;;;;;1824589;79;21556;-74
2021/01/24 07:34:42;;;;;;;44.60;24.35;;;;;;;;;;1824672;79;21155;-75
2021/01/24 07:37:08;;;;;;;43.52;23.25;;;;;;;;;;1824673;79;21148;-74
2021/01/24 07:39:35;;;;;;;52.15;25.40;;;;;;;;;;1824596;79;21126;-74
2021/01/24 07:42:02;;;;;;;43.60;23.92;;;;;;;;;;1824595;79;21148;-73
2021/01/24 07:44:29;;;;;;;43.02;23.60;;;;;;;;;;1824559;79;21133;-73
2021/01/24 07:46:55;;;;;;;35.60;21.07;;;;;;;;;;1824769;79;21117;-74
2021/01/24 07:49:21;;;;;;;43.92;23.27;;;;;;;;;;1824941;79;21144;-74
2021/01/24 07:51:47;;;;;;;41.58;23.50;;;;;;;;;;1824607;79;21565;-74
2021/01/24 07:54:14;;;;;;;55.52;27.07;;;;;;;;;;1824557;79;21089;-74
2021/01/24 07:56:41;;;;;;;45.08;24.35;;;;;;;;;;1824557;79;21691;-74
2021/01/24 07:59:08;;;;;;;40.05;23.70;;;;;;;;;;1824573;79;21133;-74
2021/01/24 08:01:34;;;;;;;52.58;25.92;;;;;;;;;;1824596;79;21157;-74
2021/01/24 08:04:01;;;;;;;51.18;26.52;;;;;;;;;;1824621;79;21118;-74
2021/01/24 08:06:27;;;;;;;48.80;28.15;;;;;;;;;;1824623;79;21102;-74
2021/01/24 08:08:54;;;;;;;45.23;24.80;;;;;;;;;;1824554;79;21121;-74
2021/01/24 08:11:20;;;;;;;49.45;25.17;;;;;;;;;;1824694;79;21105;-73
2021/01/24 08:13:47;;;;;;;43.38;22.30;;;;;;;;;;1824629;79;21600;-74
2021/01/24 08:16:15;;;;;;;42.05;24.47;;;;;;;;;;1824521;79;21129;-73
2021/01/24 08:18:42;;;;;;;48.40;24.55;;;;;;;;;;1824602;79;21207;-74
2021/01/24 08:21:08;;;;;;;41.83;24.92;;;;;;;;;;1824662;79;21572;-74
2021/01/24 08:23:34;;;;;;;48.80;26.87;;;;;;;;;;1824882;79;21125;-75
2021/01/24 08:26:01;;;;;;;45.85;24.77;;;;;;;;;;1794937;79;21572;-73
2021/01/24 08:28:27;;;;;;;46.33;26.70;;;;;;;;;;1824709;79;21156;-74
2021/01/24 08:30:53;;;;;;;44.33;26.68;;;;;;;;;;1824903;79;21553;-74
2021/01/24 08:33:19;;;;;;;47.05;26.00;;;;;;;;;;1824751;79;21129;-74
2021/01/24 08:35:45;;;;;;;48.90;25.60;;;;;;;;;;1824950;79;21518;-74
2021/01/24 08:38:13;;;;;;;51.20;27.07;;;;;;;;;;1824510;79;21129;-74
2021/01/24 08:40:40;;;;;;;46.05;26.12;;;;;;;;;;1824537;79;21125;-74
2021/01/24 08:43:06;;;;;;;50.50;27.70;;;;;;;;;;1824592;79;21145;-74
2021/01/24 08:45:32;;;;;;;48.70;25.70;;;;;;;;;;1824818;79;21565;-75
2021/01/24 08:47:59;;;;;;;44.65;25.90;;;;;;;;;;1824811;79;21113;-75
2021/01/24 08:50:32;;;;;;;49.05;25.80;;;;;;;;;;1824548;79;21106;-73
2021/01/24 08:52:59;;;;;;;41.37;24.40;;;;;;;;;;1824693;78;21561;-73
2021/01/24 08:55:25;;;;;;;41.73;24.75;;;;;;;;;;1824912;79;21160;-74
2021/01/24 08:57:52;;;;;;;50.00;25.27;;;;;;;;;;1824827;79;21106;-74
2021/01/24 09:00:18;;;;;;;44.33;25.97;;;;;;;;;;1825091;79;21101;-75
2021/01/24 09:02:44;;;;;;;40.85;24.07;;;;;;;;;;1822521;79;21550;-74
2021/01/24 09:05:13;;;;;;;47.30;25.37;;;;;;;;;;1819253;79;21129;-75
2021/01/24 09:07:44;;;;;;;41.92;23.10;;;;;;;;;;1818952;79;21125;-75
2021/01/24 09:10:15;;;;;;;41.13;24.12;;;;;;;;;;1819106;79;21585;-75
2021/01/24 09:12:42;;;;;;;45.85;22.98;;;;;;;;;;1819115;79;21098;-74
2021/01/24 09:15:09;;;;;;;41.92;24.60;;;;;;;;;;1819178;79;21127;-74
2021/01/24 09:17:35;;;;;;;43.73;24.27;;;;;;;;;;1818946;79;21140;-73
2021/01/24 09:20:08;;;;;;;43.90;26.07;;;;;;;;;;1819053;79;21566;-75
2021/01/24 09:22:38;;;;;;;49.40;27.00;;;;;;;;;;1818937;79;21098;-74
2021/01/24 09:25:05;;;;;;;48.80;26.93;;;;;;;;;;1819060;79;21129;-75
2021/01/24 09:27:31;;;;;;;49.15;28.12;;;;;;;;;;1819056;79;21124;-74
2021/01/24 09:29:57;;;;;;;49.98;28.47;;;;;;;;;;1819199;79;21169;-74
2021/01/24 09:32:23;;;;;;;48.70;25.15;;;;;;;;;;1819308;79;21114;-73
2021/01/24 09:34:49;;;;;;;44.30;25.27;;;;;;;;;;1819099;79;21129;-74
2021/01/24 09:37:18;;;;;;;39.10;23.80;;;;;;;;;;1818863;79;21149;-73
2021/01/24 09:39:50;;;;;;;35.75;22.93;;;;;;;;;;1819256;79;21540;-74
2021/01/24 09:42:17;;;;;;;39.20;21.95;;;;;;;;;;1819049;79;21137;-73
2021/01/24 09:44:43;;;;;;;36.20;22.42;;;;;;;;;;1819083;79;21114;-74
2021/01/24 09:47:09;;;;;;;38.92;21.27;;;;;;;;;;1819192;79;21161;-74
2021/01/24 09:49:36;;;;;;;37.38;21.55;;;;;;;;;;1819025;79;21578;-74
2021/01/24 09:52:02;;;;;;;34.05;20.55;;;;;;;;;;1819160;79;21140;-73
2021/01/24 09:54:28;;;;;;;36.77;20.88;;;;;;;;;;1819087;79;21125;-74
2021/01/24 09:56:54;;;;;;;34.25;20.12;;;;;;;;;;1819095;79;21573;-73
2021/01/24 09:59:21;;;;;;;32.15;19.45;;;;;;;;;;1819166;79;21125;-73
2021/01/24 10:01:47;;;;;;;37.48;20.72;;;;;;;;;;1818971;79;21157;-73
2021/01/24 10:04:14;;;;;;;33.70;19.75;;;;;;;;;;1822054;79;21255;-74
2021/01/24 10:06:40;;;;;;;30.72;19.60;;;;;;;;;;1822418;79;21640;-74
2021/01/24 10:09:06;;;;;;;28.35;17.98;;;;;;;;;;1822454;79;21339;-74
2021/01/24 10:11:32;;;;;;;24.72;15.90;;;;;;;;;;1822371;79;21259;-74
2021/01/24 10:13:59;;;;;;;22.27;14.95;;;;;;;;;;1822335;79;21125;-73
2021/01/24 10:16:26;;;;;;;22.80;14.83;;;;;;;;;;1822338;79;21211;-74
2021/01/24 10:18:52;;;;;;;25.15;15.28;;;;;;;;;;1822413;79;21532;-73
2021/01/24 10:21:20;;;;;;;23.77;13.93;;;;;;;;;;1822701;79;21125;-74
2021/01/24 10:23:46;;;;;;;24.02;14.50;;;;;;;;;;1822439;79;21690;-74
2021/01/24 10:26:14;;;;;;;26.35;15.78;;;;;;;;;;1822693;79;21129;-74
2021/01/24 10:28:40;;;;;;;20.72;14.25;;;;;;;;;;1822317;79;21596;-74
2021/01/24 10:31:07;;;;;;;23.05;14.15;;;;;;;;;;1822653;79;21275;-74
2021/01/24 10:33:33;;;;;;;22.20;14.87;;;;;;;;;;1822601;79;21157;-74
2021/01/24 10:35:59;;;;;;;21.97;15.60;;;;;;;;;;1822492;79;21133;-73
2021/01/24 10:38:26;;;;;;;20.88;13.98;;;;;;;;;;1822271;79;21129;-74
2021/01/24 10:40:55;;;;;;;19.35;13.18;;;;;;;;;;1822471;79;21525;-73
2021/01/24 10:43:21;;;;;;;22.52;14.68;;;;;;;;;;1822300;79;21085;-74
2021/01/24 10:45:47;;;;;;;24.47;14.40;;;;;;;;;;1822564;79;21687;-74
2021/01/24 10:48:14;;;;;;;21.97;14.00;;;;;;;;;;1822610;79;21147;-74
2021/01/24 10:50:40;;;;;;;25.27;14.23;;;;;;;;;;1822646;79;21121;-74
2021/01/24 10:53:06;;;;;;;23.20;13.55;;;;;;;;;;1822270;79;21565;-74
2021/01/24 10:55:33;;;;;;;22.98;14.33;;;;;;;;;;1822415;79;21140;-74
2021/01/24 10:58:00;;;;;;;22.85;14.60;;;;;;;;;;1822244;79;21567;-76
2021/01/24 11:00:26;;;;;;;19.32;12.45;;;;;;;;;;1822366;79;21121;-74
2021/01/24 11:02:53;;;;;;;22.37;13.90;;;;;;;;;;1822148;79;21164;-74
2021/01/24 11:05:22;;;;;;;20.30;13.70;;;;;;;;;;1822320;79;21132;-74
2021/01/24 11:07:48;;;;;;;18.57;13.43;;;;;;;;;;1822474;79;21557;-75
2021/01/24 11:10:14;;;;;;;16.48;10.05;;;;;;;;;;1822456;79;21149;-73
2021/01/24 11:12:40;;;;;;;12.07;5.92;;;;;;;;;;1822374;79;21589;-73
2021/01/24 11:15:07;;;;;;;12.10;5.45;;;;;;;;;;1822454;79;21114;-74
2021/01/24 11:17:33;;;;;;;7.28;3.87;;;;;;;;;;1822265;79;21125;-75
2021/01/24 11:20:00;;;;;;;3.05;1.62;;;;;;;;;;1822602;79;21119;-73
2021/01/24 11:22:26;;;;;;;3.70;1.30;;;;;;;;;;1822313;79;21117;-74
2021/01/24 11:24:52;;;;;;;4.53;1.70;;;;;;;;;;1822488;79;21270;-75
2021/01/24 11:27:18;;;;;;;1.80;1.15;;;;;;;;;;1822512;79;21270;-74
2021/01/24 11:29:44;;;;;;;1.87;1.20;;;;;;;;;;1822309;79;21157;-74
2021/01/24 11:32:11;;;;;;;2.80;1.22;;;;;;;;;;1822291;79;21295;-73
2021/01/24 11:34:37;;;;;;;2.85;1.05;;;;;;;;;;1822616;79;21140;-73
2021/01/24 11:37:03;;;;;;;1.77;0.98;;;;;;;;;;1822355;79;21140;-74
2021/01/24 11:39:29;;;;;;;0.88;0.70;;;;;;;;;;1822227;79;21113;-73
2021/01/24 11:41:56;;;;;;;3.42;1.40;;;;;;;;;;1822602;79;21311;-73
2021/01/24 11:44:23;;;;;;;1.47;0.90;;;;;;;;;;1822377;79;21157;-74
2021/01/24 11:46:49;;;;;;;1.55;0.60;;;;;;;;;;1822275;79;21251;-74
2021/01/24 11:49:15;;;;;;;2.80;1.15;;;;;;;;;;1822389;79;21141;-74
2021/01/24 11:51:41;;;;;;;4.75;1.37;;;;;;;;;;1822466;79;21125;-74
2021/01/24 11:54:07;;;;;;;3.42;1.25;;;;;;;;;;1773382;81;21552;-74
2021/01/24 11:56:34;;;;;;;1.32;1.00;;;;;;;;;;1773450;81;21132;-73
2021/01/24 11:59:00;;;;;;;3.15;1.20;;;;;;;;;;1758162;81;21172;-74
2021/01/24 12:01:26;;;;;;;2.37;1.27;;;;;;;;;;1773271;81;21153;-74
2021/01/24 12:03:52;;;;;;;1.65;0.88;;;;;;;;;;1762095;81;21163;-74
2021/01/24 12:06:19;;;;;;;3.15;1.05;;;;;;;;;;1755883;82;21153;-74
2021/01/24 12:08:45;;;;;;;1.62;1.02;;;;;;;;;;1756008;82;21576;-74
2021/01/24 12:11:11;;;;;;;2.85;0.70;;;;;;;;;;1756044;82;21576;-74
2021/01/24 12:13:37;;;;;;;2.12;0.75;;;;;;;;;;1756066;82;21217;-73
2021/01/24 12:16:04;;;;;;;3.90;1.05;;;;;;;;;;1756014;82;21121;-73
2021/01/24 12:18:30;;;;;;;2.40;0.60;;;;;;;;;;1755855;82;21133;-73
2021/01/24 12:20:56;;;;;;;1.82;0.90;;;;;;;;;;1756149;82;21149;-74
2021/01/24 12:23:22;;;;;;;2.40;1.10;;;;;;;;;;1756086;82;21565;-73
2021/01/24 12:25:49;;;;;;;3.80;1.10;;;;;;;;;;1756249;82;21170;-73
2021/01/24 12:28:15;;;;;;;2.10;0.90;;;;;;;;;;1756073;82;21563;-73
2021/01/24 12:30:41;;;;;;;2.08;0.90;;;;;;;;;;1756342;82;21160;-74
2021/01/24 12:33:12;;;;;;;2.47;1.25;;;;;;;;;;1756291;82;21597;-74
2021/01/24 12:35:35;;;;;;;1.95;0.70;;;;;;;;;;1755010;82;21136;-74
2021/01/24 12:38:01;;;;;;;4.33;1.37;;;;;;;;;;1756261;82;21141;-74
2021/01/24 12:40:27;;;;;;;2.85;1.05;;;;;;;;;;1756411;82;21133;-74
2021/01/24 12:42:54;;;;;;;1.42;0.85;;;;;;;;;;1756048;82;21157;-74
2021/01/24 12:45:20;;;;;;;4.20;0.90;;;;;;;;;;1756406;82;21220;-73
2021/01/24 12:47:46;;;;;;;5.00;1.12;;;;;;;;;;1756118;82;21119;-74
2021/01/24 12:50:12;;;;;;;1.90;0.75;;;;;;;;;;1756413;82;21141;-73
2021/01/24 12:52:38;;;;;;;2.67;1.00;;;;;;;;;;1756346;82;21148;-73
2021/01/24 12:55:05;;;;;;;1.05;0.65;;;;;;;;;;1756343;82;21144;-73
2021/01/24 12:57:32;;;;;;;1.87;0.75;;;;;;;;;;1756039;82;21173;-74
2021/01/24 12:59:58;;;;;;;1.00;0.70;;;;;;;;;;1756027;82;21136;-74
2021/01/24 13:02:24;;;;;;;43.70;3.45;;;;;;;;;;1756293;82;21141;-73
2021/01/24 13:04:51;;;;;;;3.27;1.30;;;;;;;;;;1748102;82;21180;-74
2021/01/24 13:07:17;;;;;;;3.42;0.90;;;;;;;;;;1746985;82;21161;-74
2021/01/24 13:09:43;;;;;;;1.22;0.80;;;;;;;;;;1746664;82;21141;-74
2021/01/24 13:12:09;;;;;;;4.05;1.37;;;;;;;;;;1746755;82;21141;-74
2021/01/24 13:14:35;;;;;;;2.55;0.82;;;;;;;;;;1746453;82;21138;-74
2021/01/24 13:17:02;;;;;;;3.85;0.85;;;;;;;;;;1746614;82;21522;-73
2021/01/24 13:19:29;;;;;;;1.15;0.80;;;;;;;;;;1746413;82;21146;-74
2021/01/24 13:21:55;;;;;;;2.22;0.80;;;;;;;;;;1746593;82;21596;-73
2021/01/24 13:24:21;;;;;;;1.70;1.02;;;;;;;;;;1746656;82;21138;-75
2021/01/24 13:26:48;;;;;;;2.72;0.93;;;;;;;;;;1746820;82;21141;-74
2021/01/24 13:29:14;;;;;;;3.22;1.12;;;;;;;;;;1746471;82;21130;-74
2021/01/24 13:31:40;;;;;;;2.58;1.10;;;;;;;;;;1746557;82;21165;-74
2021/01/24 13:34:07;;;;;;;3.72;0.85;;;;;;;;;;1746559;82;21185;-74
2021/01/24 13:36:33;;;;;;;1.42;0.70;;;;;;;;;;1746518;82;21570;-74
2021/01/24 13:38:59;;;;;;;1.17;0.50;;;;;;;;;;1746607;82;21117;-74
2021/01/24 13:41:26;;;;;;;1.12;0.62;;;;;;;;;;1746571;82;21597;-73
2021/01/24 13:43:52;;;;;;;2.47;1.00;;;;;;;;;;1746590;82;21142;-74
2021/01/24 13:46:19;;;;;;;1.47;0.70;;;;;;;;;;1746573;82;21177;-74
2021/01/24 13:48:45;;;;;;;3.98;1.67;;;;;;;;;;1746564;82;21593;-73
2021/01/24 13:51:11;;;;;;;1.45;0.72;;;;;;;;;;1746835;82;21154;-74
2021/01/24 13:53:37;;;;;;;2.15;1.05;;;;;;;;;;1746579;82;21169;-74
2021/01/24 13:56:03;;;;;;;3.83;0.80;;;;;;;;;;1746569;82;21150;-74
2021/01/24 13:58:30;;;;;;;1.50;0.55;;;;;;;;;;1746471;82;21122;-75
2021/01/24 14:00:56;;;;;;;3.75;0.95;;;;;;;;;;1746558;82;21193;-74
2021/01/24 14:03:22;;;;;;;3.40;1.22;;;;;;;;;;1747119;82;21129;-75
2021/01/24 14:05:48;;;;;;;1.22;0.82;;;;;;;;;;1819013;79;21533;-74
2021/01/24 14:08:14;;;;;;;0.72;0.53;;;;;;;;;;1819009;79;21145;-73
2021/01/24 14:10:40;;;;;;;2.27;1.17;;;;;;;;;;1818945;79;21117;-74
2021/01/24 14:13:07;;;;;;;1.47;0.82;;;;;;;;;;1819019;79;21624;-73
2021/01/24 14:15:33;;;;;;;1.50;0.78;;;;;;;;;;1818966;79;21119;-74
2021/01/24 14:17:59;;;;;;;4.10;1.00;;;;;;;;;;1818972;79;21138;-73
2021/01/24 14:20:26;;;;;;;5.28;1.20;;;;;;;;;;1819076;79;21584;-75